createdAt,value
2022-10-19T00:02:18.561Z,6.99
2022-10-19T00:04:46.675Z,6.95
2022-10-19T00:07:14.727Z,6.92
2022-10-19T00:09:45.196Z,6.89
2022-10-19T00:12:13.139Z,6.85
2022-10-19T00:14:40.807Z,6.84
2022-10-19T00:17:08.351Z,6.81
2022-10-19T00:19:35.911Z,6.80
2022-10-19T00:22:03.571Z,6.79
2022-10-19T00:24:31.267Z,6.77
2022-10-19T00:27:00.552Z,6.76
2022-10-19T00:29:28.279Z,6.72
2022-10-19T00:31:55.908Z,6.67
2022-10-19T00:34:23.512Z,6.66
2022-10-19T00:36:51.103Z,6.65
2022-10-19T00:39:20.069Z,6.63
2022-10-19T00:41:48.694Z,6.62
2022-10-19T00:44:53.548Z,6.59
2022-10-19T00:47:25.764Z,6.57
2022-10-19T00:49:53.786Z,6.54
2022-10-19T00:52:24.533Z,6.52
2022-10-19T00:54:54.954Z,6.49
2022-10-19T00:57:24.347Z,6.47
2022-10-19T00:59:53.034Z,6.45
2022-10-19T01:02:22.111Z,6.43
2022-10-19T01:04:52.768Z,6.42
2022-10-19T01:07:21.159Z,6.40
2022-10-19T01:09:48.820Z,6.38
2022-10-19T01:12:28.066Z,6.37
2022-10-19T01:15:07.055Z,6.35
2022-10-19T01:17:50.606Z,6.34
2022-10-19T01:20:58.034Z,6.32
2022-10-19T01:24:14.325Z,6.30
2022-10-19T01:27:04.562Z,6.28
2022-10-19T01:29:51.406Z,6.25
2022-10-19T01:32:25.881Z,6.24
2022-10-19T01:35:03.803Z,6.21
2022-10-19T01:37:38.911Z,6.21
2022-10-19T01:40:12.056Z,6.19
2022-10-19T01:42:47.109Z,6.16
2022-10-19T01:45:20.474Z,6.14
2022-10-19T01:47:54.065Z,6.11
2022-10-19T01:50:32.557Z,6.09
2022-10-19T01:53:00.813Z,6.05
2022-10-19T01:55:29.674Z,6.02
2022-10-19T01:58:01.698Z,5.99
2022-10-19T02:00:33.063Z,5.97
2022-10-19T02:03:01.968Z,5.94
2022-10-19T02:05:32.842Z,5.89
2022-10-19T02:08:04.618Z,5.88
2022-10-19T02:10:35.416Z,5.85
2022-10-19T02:13:04.432Z,5.84
2022-10-19T02:15:36.576Z,5.81
2022-10-19T02:18:04.554Z,5.81
2022-10-19T02:20:32.166Z,5.79
2022-10-19T02:22:59.699Z,5.77
2022-10-19T02:25:27.695Z,5.74
2022-10-19T02:27:55.329Z,5.72
2022-10-19T02:30:23.223Z,5.70
2022-10-19T02:32:52.696Z,5.69
2022-10-19T02:35:20.772Z,5.67
2022-10-19T02:37:48.468Z,5.64
2022-10-19T02:40:16.180Z,5.62
2022-10-19T02:42:49.093Z,5.59
2022-10-19T02:45:23.367Z,5.57
2022-10-19T02:47:55.652Z,5.56
2022-10-19T02:50:24.055Z,5.53
2022-10-19T02:52:51.939Z,5.51
2022-10-19T02:55:19.800Z,5.50
2022-10-19T02:57:47.425Z,5.49
2022-10-19T03:00:15.140Z,5.46
2022-10-19T03:02:43.967Z,5.43
2022-10-19T03:05:13.029Z,5.41
2022-10-19T03:07:42.234Z,5.39
2022-10-19T03:10:10.718Z,5.36
2022-10-19T03:12:38.300Z,5.33
2022-10-19T03:15:06.608Z,5.31
2022-10-19T03:17:34.837Z,5.29
2022-10-19T03:20:02.594Z,5.28
2022-10-19T03:22:31.682Z,5.27
2022-10-19T03:24:59.284Z,5.25
2022-10-19T03:27:27.037Z,5.23
2022-10-19T03:29:54.610Z,5.23
2022-10-19T03:32:22.723Z,5.22
2022-10-19T03:34:50.332Z,5.22
2022-10-19T03:37:17.904Z,5.21
2022-10-19T03:39:46.816Z,5.20
2022-10-19T03:42:14.450Z,5.20
2022-10-19T03:44:42.017Z,5.20
2022-10-19T03:47:09.631Z,5.19
2022-10-19T03:49:39.553Z,5.16
2022-10-19T03:52:09.952Z,5.15
2022-10-19T03:54:37.613Z,5.14
2022-10-19T03:57:06.620Z,5.13
2022-10-19T03:59:34.578Z,5.12
2022-10-19T04:02:02.217Z,5.12
2022-10-19T04:04:29.799Z,5.12
2022-10-19T04:06:57.485Z,5.11
2022-10-19T04:09:25.200Z,5.10
2022-10-19T04:11:53.011Z,5.12
2022-10-19T04:14:32.643Z,5.13
2022-10-19T04:17:06.729Z,5.15
2022-10-19T04:19:34.357Z,5.16
2022-10-19T04:22:02.057Z,5.15
2022-10-19T04:24:29.900Z,5.17
2022-10-19T04:26:57.893Z,5.18
2022-10-19T04:29:29.938Z,5.19
2022-10-19T04:32:00.108Z,5.20
2022-10-19T04:34:27.706Z,5.21
2022-10-19T04:36:55.323Z,5.22
2022-10-19T04:39:22.880Z,5.24
2022-10-19T04:41:50.482Z,5.25
2022-10-19T04:44:18.057Z,5.25
2022-10-19T04:46:46.957Z,5.27
2022-10-19T04:49:17.800Z,5.29
2022-10-19T04:51:47.866Z,5.31
2022-10-19T04:54:15.462Z,5.33
2022-10-19T04:56:43.034Z,5.36
2022-10-19T04:59:11.094Z,5.37
2022-10-19T05:01:40.434Z,5.41
2022-10-19T05:04:11.680Z,5.43
2022-10-19T05:06:39.407Z,5.45
2022-10-19T05:09:07.691Z,5.47
2022-10-19T05:11:35.436Z,5.51
2022-10-19T05:14:03.161Z,5.53
2022-10-19T05:16:30.775Z,5.54
2022-10-19T05:18:59.571Z,5.57
2022-10-19T05:21:29.767Z,5.59
2022-10-19T05:23:57.987Z,5.63
2022-10-19T05:26:27.731Z,5.65
2022-10-19T05:28:57.279Z,5.68
2022-10-19T05:31:27.574Z,5.68
2022-10-19T05:33:57.176Z,5.69
2022-10-19T05:36:26.536Z,5.70
2022-10-19T05:38:57.326Z,5.71
2022-10-19T05:41:26.579Z,5.72
2022-10-19T05:43:55.362Z,5.73
2022-10-19T05:46:23.503Z,5.75
2022-10-19T05:48:51.098Z,5.75
2022-10-19T05:51:20.649Z,5.76
2022-10-19T05:53:48.324Z,5.78
2022-10-19T05:56:19.436Z,5.80
2022-10-19T05:58:47.369Z,5.82
2022-10-19T06:01:15.467Z,5.84
2022-10-19T06:03:43.476Z,5.86
2022-10-19T06:06:11.382Z,5.88
2022-10-19T06:08:40.145Z,5.91
2022-10-19T06:11:09.810Z,5.92
2022-10-19T06:13:39.623Z,5.96
2022-10-19T06:16:08.900Z,5.97
2022-10-19T06:18:36.910Z,5.99
2022-10-19T06:21:06.417Z,6.01
2022-10-19T06:23:35.008Z,6.04
2022-10-19T06:26:04.395Z,6.09
2022-10-19T06:28:32.127Z,6.10
2022-10-19T06:31:01.316Z,6.13
2022-10-19T06:33:29.950Z,6.16
2022-10-19T06:35:57.574Z,6.19
2022-10-19T06:38:25.251Z,6.21
2022-10-19T06:40:52.809Z,6.23
2022-10-19T06:43:20.406Z,6.26
2022-10-19T06:45:47.922Z,6.29
2022-10-19T06:48:16.948Z,6.31
2022-10-19T06:50:44.499Z,6.34
2022-10-19T06:53:12.257Z,6.38
2022-10-19T06:55:39.788Z,6.41
2022-10-19T06:58:07.346Z,6.46
2022-10-19T07:00:35.308Z,6.50
2022-10-19T07:03:02.928Z,6.54
2022-10-19T07:05:31.911Z,6.59
2022-10-19T07:07:59.535Z,6.64
2022-10-19T07:10:27.362Z,6.69
2022-10-19T07:12:57.447Z,6.76
2022-10-19T07:15:25.167Z,6.81
2022-10-19T07:17:53.847Z,6.85
2022-10-19T07:20:21.609Z,6.91
2022-10-19T07:22:50.539Z,6.98
2022-10-19T07:25:18.225Z,7.03
2022-10-19T07:27:45.727Z,7.09
2022-10-19T07:30:13.315Z,7.15
2022-10-19T07:32:44.535Z,7.21
2022-10-19T07:35:14.805Z,7.27
2022-10-19T07:37:42.651Z,7.35
2022-10-19T07:40:13.468Z,7.40
2022-10-19T07:42:41.097Z,7.46
2022-10-19T07:45:08.973Z,7.52
2022-10-19T07:47:37.678Z,7.58
2022-10-19T07:50:05.887Z,7.65
2022-10-19T07:52:36.982Z,7.72
2022-10-19T07:55:05.320Z,7.79
2022-10-19T07:57:34.204Z,7.85
2022-10-19T08:00:02.163Z,7.94
2022-10-19T08:02:59.807Z,8.01
2022-10-19T08:05:27.583Z,8.10
2022-10-19T08:07:57.186Z,8.17
2022-10-19T08:10:25.021Z,8.27
2022-10-19T08:12:54.164Z,8.36
2022-10-19T08:15:21.996Z,8.44
2022-10-19T08:17:49.698Z,8.54
2022-10-19T08:20:17.634Z,8.63
2022-10-19T08:22:45.362Z,8.72
2022-10-19T08:25:12.906Z,8.82
2022-10-19T08:27:40.497Z,8.94
2022-10-19T08:30:10.204Z,9.02
2022-10-19T08:32:37.872Z,9.13
2022-10-19T08:35:09.988Z,9.23
2022-10-19T08:37:44.825Z,9.34
2022-10-19T08:40:19.092Z,9.43
2022-10-19T08:42:56.720Z,9.55
2022-10-19T08:48:26.641Z,9.77
2022-10-19T08:50:55.607Z,9.87
2022-10-19T08:53:32.315Z,9.95
2022-10-19T08:56:14.995Z,10.04
2022-10-19T08:58:57.956Z,10.11
2022-10-19T09:01:37.683Z,10.21
2022-10-19T09:04:08.947Z,10.30
2022-10-19T09:06:48.564Z,10.39
2022-10-19T09:09:19.454Z,10.48
2022-10-19T09:11:50.053Z,10.56
2022-10-19T09:14:27.160Z,10.64
2022-10-19T09:17:00.962Z,10.72
2022-10-19T09:19:31.881Z,10.78
2022-10-19T09:22:03.724Z,10.88
2022-10-19T09:24:41.248Z,10.93
2022-10-19T09:27:17.994Z,10.98
2022-10-19T09:29:49.195Z,11.03
2022-10-19T09:32:22.480Z,11.08
2022-10-19T09:34:53.100Z,11.09
2022-10-19T09:37:26.230Z,11.12
2022-10-19T09:39:55.539Z,11.15
2022-10-19T09:42:29.140Z,11.21
2022-10-19T09:44:59.464Z,11.28
2022-10-19T09:47:37.378Z,11.38
2022-10-19T09:50:16.391Z,11.45
2022-10-19T09:52:45.445Z,11.55
2022-10-19T09:55:25.895Z,11.64
2022-10-19T09:58:00.965Z,11.73
2022-10-19T10:00:34.306Z,11.81
2022-10-19T10:03:03.682Z,11.87
2022-10-19T10:05:34.203Z,11.90
2022-10-19T10:08:02.323Z,11.96
2022-10-19T10:10:34.595Z,12.03
2022-10-19T10:13:03.186Z,12.17
2022-10-19T10:15:42.359Z,12.22
2022-10-19T10:18:15.748Z,12.29
2022-10-19T10:20:59.992Z,12.34
2022-10-19T10:23:31.088Z,12.36
2022-10-19T10:26:01.349Z,12.39
2022-10-19T10:28:30.347Z,12.40
2022-10-19T10:31:04.484Z,12.43
2022-10-19T10:33:45.280Z,12.42
2022-10-19T10:36:13.944Z,12.50
2022-10-19T10:38:46.586Z,12.52
2022-10-19T10:41:18.046Z,12.54
2022-10-19T10:43:57.507Z,12.59
2022-10-19T10:46:30.389Z,12.64
2022-10-19T10:49:00.914Z,12.59
2022-10-19T10:51:35.577Z,12.61
2022-10-19T10:54:16.817Z,12.50
2022-10-19T10:56:46.273Z,12.52
2022-10-19T10:59:19.472Z,12.52
2022-10-19T11:02:03.745Z,12.51
2022-10-19T11:04:38.750Z,12.48
2022-10-19T11:07:17.426Z,12.57
2022-10-19T11:09:51.654Z,12.63
2022-10-19T11:12:25.138Z,12.65
2022-10-19T11:15:01.686Z,12.63
2022-10-19T11:17:34.941Z,12.65
2022-10-19T11:20:07.165Z,12.69
2022-10-19T11:22:44.144Z,12.73
2022-10-19T11:25:33.752Z,12.81
2022-10-19T11:28:23.197Z,12.79
2022-10-19T11:31:00.408Z,12.83
2022-10-19T11:36:30.485Z,12.88
2022-10-19T11:39:11.132Z,12.85
2022-10-19T11:41:45.200Z,12.93
2022-10-19T11:44:34.758Z,12.93
2022-10-19T11:47:22.251Z,12.94
2022-10-19T11:50:03.517Z,13.00
2022-10-19T11:52:39.545Z,13.00
2022-10-19T11:55:17.730Z,13.01
2022-10-19T11:57:51.494Z,13.05
2022-10-19T12:00:38.061Z,12.99
2022-10-19T12:03:38.493Z,12.99
2022-10-19T12:06:16.768Z,12.98
2022-10-19T12:09:01.182Z,12.99
2022-10-19T12:11:45.510Z,13.00
2022-10-19T12:14:18.124Z,13.03
2022-10-19T12:16:51.489Z,13.04
2022-10-19T12:19:22.113Z,13.08
2022-10-19T12:21:51.801Z,13.06
2022-10-19T12:24:24.304Z,13.08
2022-10-19T12:26:54.785Z,13.13
2022-10-19T12:29:26.659Z,13.14
2022-10-19T12:31:56.784Z,13.12
2022-10-19T12:34:38.987Z,13.13
2022-10-19T12:37:12.337Z,13.09
2022-10-19T12:39:47.090Z,13.12
2022-10-19T12:42:22.582Z,13.12
2022-10-19T12:45:07.940Z,13.14
2022-10-19T12:47:36.281Z,13.16
2022-10-19T12:50:05.189Z,13.15
2022-10-19T12:52:39.767Z,13.17
2022-10-19T12:55:30.746Z,13.19
2022-10-19T12:58:02.358Z,13.17
2022-10-19T13:00:32.698Z,13.22
2022-10-19T13:03:04.521Z,13.20
2022-10-19T13:05:33.842Z,13.19
2022-10-19T13:08:03.557Z,13.19
2022-10-19T13:10:33.528Z,13.25
2022-10-19T13:13:02.984Z,13.24
2022-10-19T13:15:52.333Z,13.28
2022-10-19T13:19:10.718Z,13.32
2022-10-19T13:21:47.039Z,13.29
2022-10-19T13:24:37.393Z,13.33
2022-10-19T13:27:36.647Z,13.29
2022-10-19T13:30:05.512Z,13.30
2022-10-19T13:32:38.075Z,13.31
2022-10-19T13:35:26.449Z,13.33
2022-10-19T13:38:24.279Z,13.32
2022-10-19T13:41:06.444Z,13.32
2022-10-19T13:43:38.338Z,13.33
2022-10-19T13:46:11.437Z,13.33
2022-10-19T13:48:53.795Z,13.32
2022-10-19T13:51:32.060Z,13.29
2022-10-19T13:54:11.315Z,13.30
2022-10-19T13:56:50.864Z,13.26
2022-10-19T13:59:40.689Z,13.33
2022-10-19T14:02:41.162Z,13.40
2022-10-19T14:05:26.738Z,13.45
2022-10-19T14:08:08.095Z,13.43
2022-10-19T14:10:56.364Z,13.44
2022-10-19T14:13:24.265Z,13.41
2022-10-19T14:15:56.074Z,13.41
2022-10-19T14:18:26.634Z,13.44
2022-10-19T14:20:59.486Z,13.47
2022-10-19T14:23:28.964Z,13.43
2022-10-19T14:26:00.052Z,13.41
2022-10-19T14:28:29.004Z,13.45
2022-10-19T14:31:00.292Z,13.40
2022-10-19T14:33:30.008Z,13.35
2022-10-19T14:35:57.805Z,13.36
2022-10-19T14:38:30.722Z,13.37
2022-10-19T14:40:58.428Z,13.32
2022-10-19T14:43:28.171Z,13.25
2022-10-19T14:46:12.002Z,13.26
2022-10-19T14:48:42.049Z,13.20
2022-10-19T14:51:21.769Z,13.16
2022-10-19T14:53:52.212Z,13.13
2022-10-19T14:56:24.397Z,13.10
2022-10-19T14:59:00.190Z,13.08
2022-10-19T15:01:29.321Z,13.04
2022-10-19T15:03:57.418Z,13.01
2022-10-19T15:06:28.241Z,12.95
2022-10-19T15:08:59.269Z,12.92
2022-10-19T15:11:30.670Z,12.90
2022-10-19T15:14:04.842Z,12.84
2022-10-19T15:16:43.075Z,12.79
2022-10-19T15:19:20.409Z,12.78
2022-10-19T15:21:48.211Z,12.76
2022-10-19T15:24:27.114Z,12.68
2022-10-19T15:27:08.804Z,12.62
2022-10-19T15:29:36.934Z,12.56
2022-10-19T15:32:17.365Z,12.56
2022-10-19T15:34:46.711Z,12.51
2022-10-19T15:37:21.017Z,12.48
2022-10-19T15:39:49.527Z,12.41
2022-10-19T15:42:33.110Z,12.39
2022-10-19T15:45:01.099Z,12.37
2022-10-19T15:47:30.312Z,12.33
2022-10-19T15:50:01.529Z,12.25
2022-10-19T15:52:31.363Z,12.23
2022-10-19T15:55:00.347Z,12.21
2022-10-19T15:57:33.555Z,12.15
2022-10-19T16:00:09.551Z,12.13
2022-10-19T16:02:38.973Z,12.08
2022-10-19T16:05:08.058Z,12.05
2022-10-19T16:07:39.467Z,11.99
2022-10-19T16:10:08.678Z,11.97
2022-10-19T16:12:36.265Z,11.91
2022-10-19T16:15:04.196Z,11.86
2022-10-19T16:17:32.094Z,11.83
2022-10-19T16:20:01.233Z,11.80
2022-10-19T16:22:29.256Z,11.76
2022-10-19T16:24:56.884Z,11.69
2022-10-19T16:27:25.044Z,11.64
2022-10-19T16:29:52.638Z,11.65
2022-10-19T16:32:20.208Z,11.57
2022-10-19T16:34:48.094Z,11.53
2022-10-19T16:37:17.020Z,11.48
2022-10-19T16:39:44.642Z,11.45
2022-10-19T16:42:12.303Z,11.41
2022-10-19T16:44:39.859Z,11.35
2022-10-19T16:47:07.468Z,11.30
2022-10-19T16:49:35.453Z,11.28
2022-10-19T16:52:03.104Z,11.25
2022-10-19T16:54:32.878Z,11.21
2022-10-19T16:57:00.472Z,11.17
2022-10-19T16:59:28.134Z,11.12
2022-10-19T17:01:55.800Z,11.08
2022-10-19T17:04:23.437Z,11.05
2022-10-19T17:06:51.548Z,11.02
2022-10-19T17:12:08.987Z,10.98
2022-10-19T17:14:37.196Z,10.94
2022-10-19T17:17:04.775Z,10.91
2022-10-19T17:19:32.515Z,10.88
2022-10-19T17:22:01.846Z,10.86
2022-10-19T17:24:29.888Z,10.83
2022-10-19T17:26:57.757Z,10.84
2022-10-19T17:29:27.478Z,10.80
2022-10-19T17:31:55.042Z,10.77
2022-10-19T17:34:22.715Z,10.78
2022-10-19T17:36:50.339Z,10.73
2022-10-19T17:39:24.400Z,10.67
2022-10-19T17:41:55.339Z,10.67
2022-10-19T17:44:23.382Z,10.62
2022-10-19T17:46:52.277Z,10.62
2022-10-19T17:49:19.995Z,10.62
2022-10-19T17:51:47.592Z,10.53
2022-10-19T17:54:15.562Z,10.52
2022-10-19T17:56:45.215Z,10.48
2022-10-19T17:59:13.501Z,10.50
2022-10-19T18:01:41.476Z,10.51
2022-10-19T18:04:10.403Z,10.43
2022-10-19T18:06:39.348Z,10.41
2022-10-19T18:09:09.556Z,10.38
2022-10-19T18:11:39.851Z,10.38
2022-10-19T18:14:09.300Z,10.34
2022-10-19T18:16:39.096Z,10.32
2022-10-19T18:19:07.975Z,10.31
2022-10-19T18:21:39.392Z,10.29
2022-10-19T18:24:12.712Z,10.29
2022-10-19T18:26:43.537Z,10.27
2022-10-19T18:29:13.631Z,10.29
2022-10-19T18:31:42.700Z,10.21
2022-10-19T18:34:15.724Z,10.20
2022-10-19T18:36:45.268Z,10.17
2022-10-19T18:39:14.249Z,10.15
2022-10-19T18:41:42.550Z,10.15
2022-10-19T18:44:13.067Z,10.12
2022-10-19T18:46:41.311Z,10.12
2022-10-19T18:49:09.773Z,10.07
2022-10-19T18:51:37.625Z,10.05
2022-10-19T18:54:06.785Z,10.03
2022-10-19T18:56:36.354Z,10.03
2022-10-19T18:59:04.078Z,10.01
2022-10-19T19:01:31.772Z,10.02
2022-10-19T19:04:06.405Z,9.98
2022-10-19T19:06:36.199Z,9.96
2022-10-19T19:09:09.042Z,9.93
2022-10-19T19:11:40.644Z,9.88
2022-10-19T19:14:12.066Z,9.87
2022-10-19T19:16:40.869Z,9.84
2022-10-19T19:19:09.123Z,9.81
2022-10-19T19:21:36.930Z,9.80
2022-10-19T19:24:07.054Z,9.81
2022-10-19T19:26:39.899Z,9.78
2022-10-19T19:29:08.030Z,9.76
2022-10-19T19:31:35.563Z,9.73
2022-10-19T19:34:06.229Z,9.70
2022-10-19T19:36:34.157Z,9.67
2022-10-19T19:39:02.008Z,9.65
2022-10-19T19:41:31.345Z,9.63
2022-10-19T19:44:01.407Z,9.61
2022-10-19T19:46:29.322Z,9.61
2022-10-19T19:49:00.944Z,9.58
2022-10-19T19:51:30.418Z,9.57
2022-10-19T19:53:58.688Z,9.57
2022-10-19T19:56:26.623Z,9.53
2022-10-19T19:58:56.637Z,9.54
2022-10-19T20:01:26.037Z,9.52
2022-10-19T20:03:53.897Z,9.47
2022-10-19T20:06:25.211Z,9.45
2022-10-19T20:08:54.302Z,9.44
2022-10-19T20:11:22.172Z,9.40
2022-10-19T20:13:50.226Z,9.39
2022-10-19T20:16:21.770Z,9.40
2022-10-19T20:18:59.665Z,9.33
2022-10-19T20:21:27.935Z,9.29
2022-10-19T20:23:55.500Z,9.28
2022-10-19T20:26:24.931Z,9.23
2022-10-19T20:28:52.856Z,9.20
2022-10-19T20:31:21.373Z,9.18
2022-10-19T20:33:49.291Z,9.17
2022-10-19T20:36:20.364Z,9.16
2022-10-19T20:38:50.085Z,9.10
2022-10-19T20:41:18.566Z,9.08
2022-10-19T20:43:46.417Z,9.06
2022-10-19T20:46:15.651Z,9.05
2022-10-19T20:48:43.250Z,9.03
2022-10-19T20:51:13.509Z,8.99
2022-10-19T20:53:43.516Z,8.98
2022-10-19T20:56:12.089Z,8.96
2022-10-19T20:58:42.618Z,8.93
2022-10-19T21:01:12.958Z,8.92
2022-10-19T21:03:41.497Z,8.88
2022-10-19T21:06:10.142Z,8.83
2022-10-19T21:08:38.149Z,8.79
2022-10-19T21:11:16.183Z,8.79
2022-10-19T21:13:44.121Z,8.77
2022-10-19T21:16:12.720Z,8.77
2022-10-19T21:18:41.046Z,8.72
2022-10-19T21:21:13.886Z,8.68
2022-10-19T21:23:41.724Z,8.65
2022-10-19T21:26:09.448Z,8.64
2022-10-19T21:28:39.860Z,8.62
2022-10-19T21:31:08.992Z,8.58
2022-10-19T21:33:36.957Z,8.55
2022-10-19T21:36:06.470Z,8.54
2022-10-19T21:38:35.114Z,8.50
2022-10-19T21:41:05.168Z,8.47
2022-10-19T21:43:33.617Z,8.45
2022-10-19T21:46:04.694Z,8.42
2022-10-19T21:48:33.626Z,8.39
2022-10-19T21:51:02.497Z,8.36
2022-10-19T21:53:30.054Z,8.36
2022-10-19T21:56:00.432Z,8.32
2022-10-19T21:58:28.011Z,8.29
2022-10-19T22:00:55.628Z,8.27
2022-10-19T22:03:24.503Z,8.26
2022-10-19T22:05:53.253Z,8.24
2022-10-19T22:08:20.866Z,8.23
2022-10-19T22:10:48.419Z,8.18
2022-10-19T22:13:16.047Z,8.16
2022-10-19T22:15:43.629Z,8.14
2022-10-19T22:18:11.249Z,8.11
2022-10-19T22:20:41.175Z,8.09
2022-10-19T22:23:09.125Z,8.07
2022-10-19T22:25:36.818Z,8.04
2022-10-19T22:28:04.732Z,8.00
2022-10-19T22:30:32.505Z,7.98
2022-10-19T22:33:00.082Z,7.96
2022-10-19T22:35:27.700Z,7.94
2022-10-19T22:37:56.994Z,7.91
2022-10-19T22:40:25.125Z,7.90
2022-10-19T22:42:52.665Z,7.86
2022-10-19T22:45:20.315Z,7.83
2022-10-19T22:47:47.943Z,7.82
2022-10-19T22:50:15.596Z,7.81
2022-10-19T22:52:43.256Z,7.80
2022-10-19T22:55:12.203Z,7.79
2022-10-19T22:57:39.827Z,7.75
2022-10-19T23:00:08.975Z,7.73
2022-10-19T23:02:36.874Z,7.73
2022-10-19T23:05:05.340Z,7.71
2022-10-19T23:07:33.455Z,7.69
2022-10-19T23:10:01.435Z,7.66
2022-10-19T23:12:30.657Z,7.67
2022-10-19T23:14:58.284Z,7.66
2022-10-19T23:17:25.928Z,7.64
2022-10-19T23:19:53.566Z,7.61
2022-10-19T23:22:21.150Z,7.60
2022-10-19T23:24:48.767Z,7.59
2022-10-19T23:27:16.328Z,7.58
2022-10-19T23:29:45.521Z,7.58
2022-10-19T23:32:13.163Z,7.54
2022-10-19T23:34:43.153Z,7.54
2022-10-19T23:37:13.524Z,7.52
2022-10-19T23:39:41.172Z,7.51
2022-10-19T23:42:09.215Z,7.51
2022-10-19T23:44:36.773Z,7.49
2022-10-19T23:47:06.060Z,7.47
2022-10-19T23:49:33.654Z,7.47
2022-10-19T23:52:01.349Z,7.46
2022-10-19T23:54:29.008Z,7.46
2022-10-19T23:56:56.612Z,7.44
2022-10-19T23:59:24.399Z,7.44
